Saint Helens, KY (41368)

11:25 PM EST on November 26, 2014 (GMT -0500)
APRSWXNET Pine Ridge KY US | Change Station
CLOSE
Current Station
Personal Weather Station
Location: Pine Ridge, KY
Elevation: 1295 ft
Nearby Weather Stations
Active Advisory: Special Statement

Elev 1295 ft 37.77 °N, 83.63 °W | Updated 24 minutes ago

Overcast
Overcast
36 °F
Feels Like 36 °F
N
0
Wind Variable Wind from North
Gusts 0.0 mph

Today
High -- | Low -- °F
--% Chance of Precip.
Yesterday
High -- | Low -- °F
Precip. -- in
7:25 AM 5:17 PM
Waxing Crescent, 25% visible
Pressure 30.02 in
Visibility 10.0 miles
Clouds Mostly Cloudy 8500 ft
Overcast 10000 ft
Windchill 36 °F
Dew Point 31 °F
Humidity 82%
Rainfall -999.00 in
Snow Depth Not available.
UV 0 out of 12
Pollen .10 out of 12
Air Quality Not available.
Flu Activity Not available.
METAR KJKL 270353Z AUTO 00000KT 10SM BKN085 OVC100 03/M02 A3000 RMK AO2 SLP165 T00331022

More Conditions Fewer Conditions

Pressure 30.02 in
Visibility 10.0 miles
Clouds Mostly Cloudy 8500 ft
Overcast 10000 ft
Windchill 36 °F
Dew Point 31 °F
Humidity 82%
Rainfall -999.00 in
Snow Depth Not available.
UV 0 out of 12
Pollen .10 out of 12
Air Quality Not available.
Flu Activity Not available.
METAR KJKL 270353Z AUTO 00000KT 10SM BKN085 OVC100 03/M02 A3000 RMK AO2 SLP165 T00331022

More Conditions Fewer Conditions

10-Day Weather Forecast

Almanac

Astronomy

Nov. 26, 2014 Rise Set
Actual Time
Civil Twilight
Nautical Twilight
Astronomical Twilight
Moon
Length of Visible Light
Length of Day
Tomorrow will be .
, % of the Moon is Illuminated

Today's Extremes

State Highs State Lows

Community

WunderPhotos

Upload Photos

1,773,958 photos uploaded!

WunderBlogs® & News

Nearby

Air Quality

  Air Quality AQ Index Pollutant
Not available.

Snow Depth

Station Depth Elevation

Earthquake Activity

City Distance Mag. Time & Date
Minimum magnitude displayed is 2.5.

Coastal Water Temperatures

Place Temperature

Nearby Weather Stations